Etusivu
METAR-TAF:

METAR-TAF

Lentoasemat :

Eureka, Nunavut, Kanada

Leveyspiiri: 79-59N, Pituuspiiri: 085-56W, korkeus merenpinnasta: 10 m

Tämänhetkinen sää

Tämä raportti tehtiin 1 tunti ja 16 minuuttia sitten, kello 01.00 UTC
Tuuli 19 kn etelästä/kaakosta
Lämpötila 0°C
Kosteus 74%
Ilmanpaine 1025 hPa
Näkyvyys: 24.1 km
Muutamia pilviä 3000 ft:n korkeudessa
Hajonneita pilviä 11000 ft:n korkeudessa

METAR: CWEU 040100Z 16019KT 15SM FEW030 BKN110 M00/M04 A3027 RMK SC1AC7 SC TR SLP260

Aika: 21:16 (02:16 UTC)


TAF: puuttuu

Säähavainnot ja -ennusteet yli 4000 lentoasemalta (METAR- ja TAF-raportit).

Käytössä olevat sääasemat on merkitty karttaan keltaisilla ja punaisilla pisteillä.

Aseta hiiri pisteen päälle nähdäksesi sääaseman nimen.

Klikkaa sitten nähdäksesi säähavainnot ja -ennusteet.

Kartan vaihtaminen: klikkaa mustalla rastilla varustettuja vihreitä pisteitä, niin voit zoomata sisään; viivalla varustettua vihreää pistettä, niin voit zoomata ulos tai vihreitä nuolia, niin pääset viereisille kartoille.


METAR-TAF: